sensor_id;sensor_type;location;lat;lon;timestamp;pressure;altitude;pressure_sealevel;temperature;humidity
6096;BME280;25081;42.698;23.298;2023-04-04T00:01:26;93852.52;;;7.22;100.00
6096;BME280;25081;42.698;23.298;2023-04-04T00:03:36;93857.36;;;7.13;100.00
6096;BME280;25081;42.698;23.298;2023-04-04T00:05:47;93860.75;;;7.23;100.00
6096;BME280;25081;42.698;23.298;2023-04-04T00:07:57;93853.25;;;7.31;100.00
6096;BME280;25081;42.698;23.298;2023-04-04T00:10:10;93856.70;;;7.32;100.00
6096;BME280;25081;42.698;23.298;2023-04-04T00:12:29;93853.68;;;7.26;100.00
6096;BME280;25081;42.698;23.298;2023-04-04T00:14:40;93852.36;;;7.26;100.00
6096;BME280;25081;42.698;23.298;2023-04-04T00:16:51;93855.52;;;7.25;100.00
6096;BME280;25081;42.698;23.298;2023-04-04T00:19:01;93855.05;;;7.28;100.00
6096;BME280;25081;42.698;23.298;2023-04-04T00:21:12;93858.74;;;7.27;100.00
6096;BME280;25081;42.698;23.298;2023-04-04T00:23:22;93860.64;;;7.29;100.00
6096;BME280;25081;42.698;23.298;2023-04-04T00:25:33;93857.42;;;7.27;100.00
6096;BME280;25081;42.698;23.298;2023-04-04T00:27:44;93859.55;;;7.28;100.00
6096;BME280;25081;42.698;23.298;2023-04-04T00:29:55;93854.88;;;7.21;100.00
6096;BME280;25081;42.698;23.298;2023-04-04T00:32:05;93851.02;;;7.14;100.00
6096;BME280;25081;42.698;23.298;2023-04-04T00:34:16;93843.91;;;7.14;100.00
6096;BME280;25081;42.698;23.298;2023-04-04T00:36:26;93834.31;;;7.13;100.00
6096;BME280;25081;42.698;23.298;2023-04-04T00:38:37;93824.24;;;7.25;100.00
6096;BME280;25081;42.698;23.298;2023-04-04T00:43:15;93816.29;;;7.25;100.00
6096;BME280;25081;42.698;23.298;2023-04-04T00:45:26;93827.78;;;7.30;100.00
6096;BME280;25081;42.698;23.298;2023-04-04T00:47:37;93821.68;;;7.30;100.00
6096;BME280;25081;42.698;23.298;2023-04-04T00:49:47;93816.42;;;7.32;100.00
6096;BME280;25081;42.698;23.298;2023-04-04T00:51:58;93815.98;;;7.24;100.00
6096;BME280;25081;42.698;23.298;2023-04-04T00:54:09;93809.23;;;7.30;100.00
6096;BME280;25081;42.698;23.298;2023-04-04T00:56:19;93812.72;;;7.19;100.00
6096;BME280;25081;42.698;23.298;2023-04-04T00:58:30;93811.27;;;7.26;100.00
6096;BME280;25081;42.698;23.298;2023-04-04T01:00:40;93801.52;;;7.29;100.00
6096;BME280;25081;42.698;23.298;2023-04-04T01:02:51;93811.88;;;7.30;100.00
6096;BME280;25081;42.698;23.298;2023-04-04T01:05:02;93806.81;;;7.29;100.00
6096;BME280;25081;42.698;23.298;2023-04-04T01:07:13;93812.00;;;7.35;100.00
6096;BME280;25081;42.698;23.298;2023-04-04T01:09:23;93815.48;;;7.24;100.00
6096;BME280;25081;42.698;23.298;2023-04-04T01:11:36;93816.22;;;7.22;100.00
6096;BME280;25081;42.698;23.298;2023-04-04T01:13:47;93821.07;;;7.25;100.00
6096;BME280;25081;42.698;23.298;2023-04-04T01:15:58;93824.97;;;7.23;100.00
6096;BME280;25081;42.698;23.298;2023-04-04T01:18:10;93829.39;;;7.31;100.00
6096;BME280;25081;42.698;23.298;2023-04-04T01:20:21;93824.09;;;7.31;100.00
6096;BME280;25081;42.698;23.298;2023-04-04T01:22:31;93830.64;;;7.40;100.00
6096;BME280;25081;42.698;23.298;2023-04-04T01:24:41;93833.22;;;7.50;100.00
6096;BME280;25081;42.698;23.298;2023-04-04T01:26:52;93836.52;;;7.54;100.00
6096;BME280;25081;42.698;23.298;2023-04-04T01:29:03;93840.02;;;7.57;100.00
6096;BME280;25081;42.698;23.298;2023-04-04T01:31:13;93840.02;;;7.57;100.00
6096;BME280;25081;42.698;23.298;2023-04-04T01:33:25;93836.44;;;7.52;100.00
6096;BME280;25081;42.698;23.298;2023-04-04T01:35:37;93839.48;;;7.58;100.00
6096;BME280;25081;42.698;23.298;2023-04-04T01:37:48;93832.33;;;7.44;100.00
6096;BME280;25081;42.698;23.298;2023-04-04T01:39:59;93831.28;;;7.45;100.00
6096;BME280;25081;42.698;23.298;2023-04-04T01:42:09;93826.39;;;7.39;100.00
6096;BME280;25081;42.698;23.298;2023-04-04T01:44:19;93822.41;;;7.39;100.00
6096;BME280;25081;42.698;23.298;2023-04-04T01:46:30;93818.95;;;7.39;100.00
6096;BME280;25081;42.698;23.298;2023-04-04T01:48:40;93814.05;;;7.33;100.00
6096;BME280;25081;42.698;23.298;2023-04-04T01:50:51;93812.45;;;7.32;100.00
6096;BME280;25081;42.698;23.298;2023-04-04T01:53:02;93796.94;;;7.38;100.00
6096;BME280;25081;42.698;23.298;2023-04-04T01:55:12;93797.66;;;7.34;100.00
6096;BME280;25081;42.698;23.298;2023-04-04T01:57:23;93789.83;;;7.27;100.00
6096;BME280;25081;42.698;23.298;2023-04-04T01:59:33;93790.11;;;7.28;100.00
6096;BME280;25081;42.698;23.298;2023-04-04T02:01:44;93778.58;;;7.34;100.00
6096;BME280;25081;42.698;23.298;2023-04-04T02:03:54;93775.86;;;7.32;100.00
6096;BME280;25081;42.698;23.298;2023-04-04T02:06:06;93786.66;;;7.28;100.00
6096;BME280;25081;42.698;23.298;2023-04-04T02:08:17;93786.94;;;7.29;99.91
6096;BME280;25081;42.698;23.298;2023-04-04T02:10:27;93782.40;;;7.27;100.00
6096;BME280;25081;42.698;23.298;2023-04-04T02:12:38;93790.20;;;7.33;100.00
6096;BME280;25081;42.698;23.298;2023-04-04T02:14:49;93790.72;;;7.33;100.00
6096;BME280;25081;42.698;23.298;2023-04-04T02:16:59;93796.26;;;7.31;100.00
6096;BME280;25081;42.698;23.298;2023-04-04T02:19:10;93787.91;;;7.37;100.00
6096;BME280;25081;42.698;23.298;2023-04-04T02:21:21;93783.69;;;7.38;100.00
6096;BME280;25081;42.698;23.298;2023-04-04T02:23:32;93787.06;;;7.34;100.00
6096;BME280;25081;42.698;23.298;2023-04-04T02:25:42;93784.33;;;7.31;100.00
6096;BME280;25081;42.698;23.298;2023-04-04T02:27:53;93778.27;;;7.33;100.00
6096;BME280;25081;42.698;23.298;2023-04-04T02:30:04;93776.53;;;7.25;100.00
6096;BME280;25081;42.698;23.298;2023-04-04T02:32:15;93777.50;;;7.21;100.00
6096;BME280;25081;42.698;23.298;2023-04-04T02:34:25;93770.23;;;7.28;100.00
6096;BME280;25081;42.698;23.298;2023-04-04T02:36:36;93774.61;;;7.34;100.00
6096;BME280;25081;42.698;23.298;2023-04-04T02:38:46;93775.45;;;7.37;100.00
6096;BME280;25081;42.698;23.298;2023-04-04T02:40:57;93784.90;;;7.33;100.00
6096;BME280;25081;42.698;23.298;2023-04-04T02:43:08;93783.08;;;7.34;100.00
6096;BME280;25081;42.698;23.298;2023-04-04T02:45:18;93783.53;;;7.31;100.00
6096;BME280;25081;42.698;23.298;2023-04-04T02:47:29;93786.74;;;7.33;100.00
6096;BME280;25081;42.698;23.298;2023-04-04T02:49:39;93783.20;;;7.41;100.00
6096;BME280;25081;42.698;23.298;2023-04-04T02:51:50;93788.06;;;7.44;100.00
6096;BME280;25081;42.698;23.298;2023-04-04T02:54:01;93788.14;;;7.35;99.57
6096;BME280;25081;42.698;23.298;2023-04-04T02:56:11;93790.91;;;7.29;99.25
6096;BME280;25081;42.698;23.298;2023-04-04T02:58:22;93789.02;;;7.27;98.98
6096;BME280;25081;42.698;23.298;2023-04-04T03:00:32;93786.38;;;7.27;98.22
6096;BME280;25081;42.698;23.298;2023-04-04T03:02:43;93791.84;;;7.23;98.37
6096;BME280;25081;42.698;23.298;2023-04-04T03:04:53;93788.02;;;7.30;98.63
6096;BME280;25081;42.698;23.298;2023-04-04T03:07:04;93787.63;;;7.36;98.49
6096;BME280;25081;42.698;23.298;2023-04-04T03:09:14;93792.56;;;7.32;98.68
6096;BME280;25081;42.698;23.298;2023-04-04T03:11:25;93795.01;;;7.34;98.89
6096;BME280;25081;42.698;23.298;2023-04-04T03:13:35;93797.75;;;7.39;99.79
6096;BME280;25081;42.698;23.298;2023-04-04T03:15:46;93800.96;;;7.41;99.79
6096;BME280;25081;42.698;23.298;2023-04-04T03:17:57;93799.88;;;7.39;99.44
6096;BME280;25081;42.698;23.298;2023-04-04T03:20:10;93802.56;;;7.42;99.93
6096;BME280;25081;42.698;23.298;2023-04-04T03:22:21;93806.63;;;7.44;99.75
6096;BME280;25081;42.698;23.298;2023-04-04T03:24:32;93804.53;;;7.46;100.00
6096;BME280;25081;42.698;23.298;2023-04-04T03:26:42;93805.09;;;7.49;100.00
6096;BME280;25081;42.698;23.298;2023-04-04T03:28:53;93790.80;;;7.50;100.00
6096;BME280;25081;42.698;23.298;2023-04-04T03:31:06;93801.16;;;7.51;100.00
6096;BME280;25081;42.698;23.298;2023-04-04T03:33:17;93791.72;;;7.55;100.00
6096;BME280;25081;42.698;23.298;2023-04-04T03:35:27;93794.45;;;7.60;100.00
6096;BME280;25081;42.698;23.298;2023-04-04T03:37:38;93794.84;;;7.66;100.00
6096;BME280;25081;42.698;23.298;2023-04-04T03:39:48;93800.72;;;7.54;100.00
6096;BME280;25081;42.698;23.298;2023-04-04T03:41:59;93800.92;;;7.53;100.00
6096;BME280;25081;42.698;23.298;2023-04-04T03:44:10;93803.80;;;7.63;99.35
6096;BME280;25081;42.698;23.298;2023-04-04T03:46:20;93803.99;;;7.73;100.00
6096;BME280;25081;42.698;23.298;2023-04-04T03:48:31;93803.70;;;7.86;100.00
6096;BME280;25081;42.698;23.298;2023-04-04T03:50:41;93806.48;;;7.80;100.00
6096;BME280;25081;42.698;23.298;2023-04-04T03:52:52;93812.47;;;7.72;100.00
6096;BME280;25081;42.698;23.298;2023-04-04T03:55:02;93814.25;;;7.55;100.00
6096;BME280;25081;42.698;23.298;2023-04-04T03:57:13;93811.77;;;7.51;100.00
6096;BME280;25081;42.698;23.298;2023-04-04T03:59:23;93815.47;;;7.50;100.00
6096;BME280;25081;42.698;23.298;2023-04-04T04:01:34;93802.45;;;7.49;100.00
6096;BME280;25081;42.698;23.298;2023-04-04T04:03:44;93804.77;;;7.59;100.00
6096;BME280;25081;42.698;23.298;2023-04-04T04:05:55;93810.75;;;7.66;100.00
6096;BME280;25081;42.698;23.298;2023-04-04T04:08:06;93806.38;;;7.60;100.00
6096;BME280;25081;42.698;23.298;2023-04-04T04:10:17;93809.95;;;7.66;100.00
6096;BME280;25081;42.698;23.298;2023-04-04T04:12:27;93803.92;;;7.70;100.00
6096;BME280;25081;42.698;23.298;2023-04-04T04:14:37;93798.28;;;7.81;100.00
6096;BME280;25081;42.698;23.298;2023-04-04T04:16:48;93797.44;;;7.78;100.00
6096;BME280;25081;42.698;23.298;2023-04-04T04:18:59;93806.20;;;7.79;100.00
6096;BME280;25081;42.698;23.298;2023-04-04T04:21:09;93803.03;;;7.79;100.00
6096;BME280;25081;42.698;23.298;2023-04-04T04:23:20;93814.89;;;7.74;100.00
6096;BME280;25081;42.698;23.298;2023-04-04T04:25:30;93816.34;;;7.67;100.00
6096;BME280;25081;42.698;23.298;2023-04-04T04:27:42;93813.13;;;7.65;100.00
6096;BME280;25081;42.698;23.298;2023-04-04T04:29:52;93815.25;;;7.66;100.00
6096;BME280;25081;42.698;23.298;2023-04-04T04:32:03;93820.73;;;7.62;100.00
6096;BME280;25081;42.698;23.298;2023-04-04T04:34:13;93829.88;;;7.68;100.00
6096;BME280;25081;42.698;23.298;2023-04-04T04:36:24;93833.73;;;7.75;100.00
6096;BME280;25081;42.698;23.298;2023-04-04T04:38:34;93836.43;;;7.63;100.00
6096;BME280;25081;42.698;23.298;2023-04-04T04:40:45;93838.92;;;7.70;100.00
6096;BME280;25081;42.698;23.298;2023-04-04T04:42:55;93840.61;;;7.73;100.00
6096;BME280;25081;42.698;23.298;2023-04-04T04:45:08;93840.69;;;7.79;100.00
6096;BME280;25081;42.698;23.298;2023-04-04T04:47:18;93840.95;;;7.91;100.00
6096;BME280;25081;42.698;23.298;2023-04-04T04:49:29;93846.06;;;7.95;100.00
6096;BME280;25081;42.698;23.298;2023-04-04T04:51:39;93844.82;;;7.86;100.00
6096;BME280;25081;42.698;23.298;2023-04-04T04:53:50;93852.73;;;7.84;100.00
6096;BME280;25081;42.698;23.298;2023-04-04T04:56:01;93852.22;;;7.84;100.00
6096;BME280;25081;42.698;23.298;2023-04-04T04:58:11;93848.91;;;7.91;100.00
6096;BME280;25081;42.698;23.298;2023-04-04T05:00:22;93853.64;;;8.03;100.00
6096;BME280;25081;42.698;23.298;2023-04-04T05:02:33;93857.23;;;7.97;100.00
6096;BME280;25081;42.698;23.298;2023-04-04T05:04:43;93867.89;;;7.86;100.00
6096;BME280;25081;42.698;23.298;2023-04-04T05:06:54;93869.50;;;7.87;100.00
6096;BME280;25081;42.698;23.298;2023-04-04T05:09:05;93868.30;;;7.80;100.00
6096;BME280;25081;42.698;23.298;2023-04-04T05:11:15;93873.36;;;7.93;100.00
6096;BME280;25081;42.698;23.298;2023-04-04T05:13:26;93871.70;;;8.04;100.00
6096;BME280;25081;42.698;23.298;2023-04-04T05:15:36;93863.68;;;8.16;100.00
6096;BME280;25081;42.698;23.298;2023-04-04T05:17:47;93869.80;;;8.30;100.00
6096;BME280;25081;42.698;23.298;2023-04-04T05:19:57;93873.47;;;8.29;100.00
6096;BME280;25081;42.698;23.298;2023-04-04T05:22:08;93872.84;;;8.37;100.00
6096;BME280;25081;42.698;23.298;2023-04-04T05:24:19;93878.75;;;8.55;100.00
6096;BME280;25081;42.698;23.298;2023-04-04T05:26:29;93878.36;;;8.64;100.00
6096;BME280;25081;42.698;23.298;2023-04-04T05:28:40;93877.20;;;8.74;100.00
6096;BME280;25081;42.698;23.298;2023-04-04T05:30:51;93885.52;;;8.63;100.00
6096;BME280;25081;42.698;23.298;2023-04-04T05:33:01;93883.69;;;8.80;100.00
6096;BME280;25081;42.698;23.298;2023-04-04T05:35:12;93881.13;;;9.05;100.00
6096;BME280;25081;42.698;23.298;2023-04-04T05:37:22;93876.39;;;9.26;99.69
6096;BME280;25081;42.698;23.298;2023-04-04T05:39:33;93882.44;;;9.58;98.79
6096;BME280;25081;42.698;23.298;2023-04-04T05:41:43;93886.03;;;9.90;95.68
6096;BME280;25081;42.698;23.298;2023-04-04T05:43:54;93884.53;;;9.75;94.59
6096;BME280;25081;42.698;23.298;2023-04-04T05:46:04;93886.73;;;9.61;94.87
6096;BME280;25081;42.698;23.298;2023-04-04T05:48:15;93885.19;;;9.85;96.91
6096;BME280;25081;42.698;23.298;2023-04-04T05:50:26;93893.96;;;10.29;96.22
6096;BME280;25081;42.698;23.298;2023-04-04T05:52:36;93888.91;;;10.54;92.97
6096;BME280;25081;42.698;23.298;2023-04-04T05:54:47;93892.46;;;10.95;93.74
6096;BME280;25081;42.698;23.298;2023-04-04T05:56:57;93887.48;;;11.08;91.43
6096;BME280;25081;42.698;23.298;2023-04-04T05:59:08;93893.34;;;10.73;87.58
6096;BME280;25081;42.698;23.298;2023-04-04T06:01:18;93888.27;;;10.72;89.27
6096;BME280;25081;42.698;23.298;2023-04-04T06:03:29;93889.11;;;10.50;89.91
6096;BME280;25081;42.698;23.298;2023-04-04T06:05:42;93891.83;;;10.28;90.07
6096;BME280;25081;42.698;23.298;2023-04-04T06:07:53;93891.91;;;10.36;92.06
6096;BME280;25081;42.698;23.298;2023-04-04T06:10:04;93901.63;;;10.50;91.33
6096;BME280;25081;42.698;23.298;2023-04-04T06:12:14;93900.81;;;10.47;90.13
6096;BME280;25081;42.698;23.298;2023-04-04T06:14:25;93904.38;;;10.57;90.32
6096;BME280;25081;42.698;23.298;2023-04-04T06:16:35;93899.59;;;10.86;90.24
6096;BME280;25081;42.698;23.298;2023-04-04T06:18:46;93906.77;;;10.83;88.18
6096;BME280;25081;42.698;23.298;2023-04-04T06:20:56;93910.34;;;10.67;87.44
6096;BME280;25081;42.698;23.298;2023-04-04T06:23:07;93912.25;;;10.45;87.68
6096;BME280;25081;42.698;23.298;2023-04-04T06:25:17;93918.28;;;10.35;89.45
6096;BME280;25081;42.698;23.298;2023-04-04T06:27:28;93921.29;;;10.71;90.02
6096;BME280;25081;42.698;23.298;2023-04-04T06:29:38;93924.05;;;10.27;88.68
6096;BME280;25081;42.698;23.298;2023-04-04T06:31:50;93923.39;;;9.76;88.16
6096;BME280;25081;42.698;23.298;2023-04-04T06:34:01;93929.42;;;9.16;86.13
6096;BME280;25081;42.698;23.298;2023-04-04T06:36:11;93943.94;;;9.61;96.14
6096;BME280;25081;42.698;23.298;2023-04-04T06:38:22;93946.94;;;10.06;86.09
6096;BME280;25081;42.698;23.298;2023-04-04T06:40:32;93963.02;;;8.88;81.74
6096;BME280;25081;42.698;23.298;2023-04-04T06:42:48;93970.44;;;8.44;83.44
6096;BME280;25081;42.698;23.298;2023-04-04T06:44:59;93972.72;;;7.51;85.31
6096;BME280;25081;42.698;23.298;2023-04-04T06:47:10;93982.33;;;7.19;85.79
6096;BME280;25081;42.698;23.298;2023-04-04T06:49:20;93982.39;;;7.33;86.05
6096;BME280;25081;42.698;23.298;2023-04-04T06:51:31;93981.61;;;7.44;85.42
6096;BME280;25081;42.698;23.298;2023-04-04T06:53:41;93993.56;;;7.24;84.91
6096;BME280;25081;42.698;23.298;2023-04-04T06:55:52;93991.13;;;7.10;85.20
6096;BME280;25081;42.698;23.298;2023-04-04T06:58:03;93991.47;;;7.14;85.21
6096;BME280;25081;42.698;23.298;2023-04-04T07:00:15;93994.95;;;6.73;85.31
6096;BME280;25081;42.698;23.298;2023-04-04T07:02:26;93999.12;;;6.59;86.12
6096;BME280;25081;42.698;23.298;2023-04-04T07:04:37;94005.90;;;6.85;84.48
6096;BME280;25081;42.698;23.298;2023-04-04T07:06:47;94017.33;;;6.77;82.96
6096;BME280;25081;42.698;23.298;2023-04-04T07:08:58;94032.95;;;6.67;83.87
6096;BME280;25081;42.698;23.298;2023-04-04T07:11:08;94040.50;;;6.24;83.83
6096;BME280;25081;42.698;23.298;2023-04-04T07:13:19;94048.31;;;6.10;83.26
6096;BME280;25081;42.698;23.298;2023-04-04T07:15:29;94052.63;;;6.13;82.77
6096;BME280;25081;42.698;23.298;2023-04-04T07:17:40;94058.95;;;5.94;82.53
6096;BME280;25081;42.698;23.298;2023-04-04T07:19:50;94064.45;;;5.92;83.89
6096;BME280;25081;42.698;23.298;2023-04-04T07:22:01;94064.64;;;5.82;83.53
6096;BME280;25081;42.698;23.298;2023-04-04T07:24:12;94073.81;;;5.88;83.24
6096;BME280;25081;42.698;23.298;2023-04-04T07:26:22;94072.94;;;5.85;82.45
6096;BME280;25081;42.698;23.298;2023-04-04T07:28:33;94077.46;;;5.94;82.45
6096;BME280;25081;42.698;23.298;2023-04-04T07:30:43;94087.70;;;5.84;82.62
6096;BME280;25081;42.698;23.298;2023-04-04T07:32:58;94084.25;;;5.83;81.68
6096;BME280;25081;42.698;23.298;2023-04-04T07:35:09;94094.02;;;5.83;81.01
6096;BME280;25081;42.698;23.298;2023-04-04T07:37:20;94093.73;;;5.82;81.69
6096;BME280;25081;42.698;23.298;2023-04-04T07:39:30;94104.55;;;5.64;81.29
6096;BME280;25081;42.698;23.298;2023-04-04T07:41:41;94098.58;;;5.51;80.84
6096;BME280;25081;42.698;23.298;2023-04-04T07:43:51;94109.05;;;5.48;81.85
6096;BME280;25081;42.698;23.298;2023-04-04T07:46:02;94113.59;;;5.66;80.99
6096;BME280;25081;42.698;23.298;2023-04-04T07:48:13;94117.44;;;5.70;80.45
6096;BME280;25081;42.698;23.298;2023-04-04T07:50:23;94115.47;;;5.59;80.00
6096;BME280;25081;42.698;23.298;2023-04-04T07:52:36;94114.81;;;5.38;79.84
6096;BME280;25081;42.698;23.298;2023-04-04T07:54:46;94116.17;;;5.48;80.32
6096;BME280;25081;42.698;23.298;2023-04-04T07:56:57;94114.77;;;5.61;80.14
6096;BME280;25081;42.698;23.298;2023-04-04T07:59:07;94115.59;;;5.70;80.09
6096;BME280;25081;42.698;23.298;2023-04-04T08:01:18;94113.84;;;5.73;79.92
6096;BME280;25081;42.698;23.298;2023-04-04T08:03:28;94121.98;;;5.72;78.48
6096;BME280;25081;42.698;23.298;2023-04-04T08:05:39;94130.16;;;5.55;78.99
6096;BME280;25081;42.698;23.298;2023-04-04T08:07:49;94127.98;;;5.45;79.10
6096;BME280;25081;42.698;23.298;2023-04-04T08:10:00;94136.06;;;5.41;79.10
6096;BME280;25081;42.698;23.298;2023-04-04T08:12:11;94139.15;;;5.47;78.90
6096;BME280;25081;42.698;23.298;2023-04-04T08:14:21;94144.62;;;5.36;79.52
6096;BME280;25081;42.698;23.298;2023-04-04T08:16:32;94154.12;;;5.28;79.25
6096;BME280;25081;42.698;23.298;2023-04-04T08:18:43;94143.59;;;5.37;79.93
6096;BME280;25081;42.698;23.298;2023-04-04T08:20:53;94150.56;;;5.57;80.15
6096;BME280;25081;42.698;23.298;2023-04-04T08:23:04;94159.34;;;5.66;79.60
6096;BME280;25081;42.698;23.298;2023-04-04T08:25:15;94164.05;;;5.49;79.20
6096;BME280;25081;42.698;23.298;2023-04-04T08:27:25;94168.14;;;5.44;79.29
6096;BME280;25081;42.698;23.298;2023-04-04T08:29:36;94167.23;;;5.57;79.06
6096;BME280;25081;42.698;23.298;2023-04-04T08:31:47;94164.11;;;5.67;78.87
6096;BME280;25081;42.698;23.298;2023-04-04T08:33:57;94174.54;;;5.62;77.94
6096;BME280;25081;42.698;23.298;2023-04-04T08:36:09;94188.13;;;5.65;77.47
6096;BME280;25081;42.698;23.298;2023-04-04T08:38:19;94173.25;;;5.71;77.38
6096;BME280;25081;42.698;23.298;2023-04-04T08:40:30;94183.02;;;5.70;77.54
6096;BME280;25081;42.698;23.298;2023-04-04T08:42:41;94184.09;;;5.63;76.63
6096;BME280;25081;42.698;23.298;2023-04-04T08:44:52;94182.14;;;5.52;75.99
6096;BME280;25081;42.698;23.298;2023-04-04T08:47:03;94187.03;;;5.64;76.48
6096;BME280;25081;42.698;23.298;2023-04-04T08:49:14;94186.98;;;5.55;76.96
6096;BME280;25081;42.698;23.298;2023-04-04T08:51:25;94186.17;;;5.38;76.44
6096;BME280;25081;42.698;23.298;2023-04-04T08:53:35;94195.69;;;5.46;76.65
6096;BME280;25081;42.698;23.298;2023-04-04T08:55:46;94203.28;;;5.52;76.06
6096;BME280;25081;42.698;23.298;2023-04-04T08:57:57;94197.30;;;5.47;76.78
6096;BME280;25081;42.698;23.298;2023-04-04T09:00:09;94201.81;;;5.40;76.64
6096;BME280;25081;42.698;23.298;2023-04-04T09:02:22;94213.70;;;5.40;77.25
6096;BME280;25081;42.698;23.298;2023-04-04T09:04:32;94203.83;;;5.06;77.19
6096;BME280;25081;42.698;23.298;2023-04-04T09:06:43;94204.27;;;5.19;78.58
6096;BME280;25081;42.698;23.298;2023-04-04T09:08:53;94209.66;;;5.37;78.66
6096;BME280;25081;42.698;23.298;2023-04-04T09:11:04;94207.85;;;5.15;77.82
6096;BME280;25081;42.698;23.298;2023-04-04T09:13:15;94218.00;;;4.96;79.45
6096;BME280;25081;42.698;23.298;2023-04-04T09:15:26;94215.27;;;4.94;80.42
6096;BME280;25081;42.698;23.298;2023-04-04T09:17:36;94223.87;;;4.69;79.90
6096;BME280;25081;42.698;23.298;2023-04-04T09:19:47;94225.86;;;4.80;80.52
6096;BME280;25081;42.698;23.298;2023-04-04T09:21:57;94221.22;;;4.76;80.07
6096;BME280;25081;42.698;23.298;2023-04-04T09:24:08;94221.51;;;4.83;79.39
6096;BME280;25081;42.698;23.298;2023-04-04T09:26:19;94224.88;;;4.75;79.90
6096;BME280;25081;42.698;23.298;2023-04-04T09:28:29;94231.78;;;4.76;79.23
6096;BME280;25081;42.698;23.298;2023-04-04T09:30:40;94226.36;;;4.86;79.02
6096;BME280;25081;42.698;23.298;2023-04-04T09:32:50;94227.16;;;4.94;79.46
6096;BME280;25081;42.698;23.298;2023-04-04T09:35:01;94228.03;;;5.03;79.46
6096;BME280;25081;42.698;23.298;2023-04-04T09:37:11;94232.38;;;5.07;79.65
6096;BME280;25081;42.698;23.298;2023-04-04T09:39:22;94232.86;;;5.13;78.85
6096;BME280;25081;42.698;23.298;2023-04-04T09:41:33;94238.03;;;5.10;77.49
6096;BME280;25081;42.698;23.298;2023-04-04T09:43:45;94226.23;;;4.91;77.87
6096;BME280;25081;42.698;23.298;2023-04-04T09:45:55;94234.28;;;5.09;77.76
6096;BME280;25081;42.698;23.298;2023-04-04T09:48:06;94235.14;;;5.03;77.08
6096;BME280;25081;42.698;23.298;2023-04-04T09:50:21;94242.42;;;5.30;77.58
6096;BME280;25081;42.698;23.298;2023-04-04T09:52:32;94242.64;;;5.06;76.19
6096;BME280;25081;42.698;23.298;2023-04-04T09:54:43;94246.60;;;5.06;76.53
6096;BME280;25081;42.698;23.298;2023-04-04T09:56:54;94241.83;;;5.05;75.92
6096;BME280;25081;42.698;23.298;2023-04-04T09:59:05;94242.92;;;5.13;75.54
6096;BME280;25081;42.698;23.298;2023-04-04T10:01:16;94237.81;;;5.41;75.15
6096;BME280;25081;42.698;23.298;2023-04-04T10:03:27;94237.24;;;5.48;74.23
6096;BME280;25081;42.698;23.298;2023-04-04T10:05:37;94233.98;;;5.53;74.94
6096;BME280;25081;42.698;23.298;2023-04-04T10:07:48;94237.30;;;5.41;74.92
6096;BME280;25081;42.698;23.298;2023-04-04T10:10:00;94133.18;;;4.50;74.08
6096;BME280;25081;42.698;23.298;2023-04-04T10:12:11;94238.53;;;5.16;75.26
6096;BME280;25081;42.698;23.298;2023-04-04T10:14:33;94245.08;;;5.01;74.43
6096;BME280;25081;42.698;23.298;2023-04-04T10:16:45;94245.78;;;5.28;74.24
6096;BME280;25081;42.698;23.298;2023-04-04T10:18:55;94252.94;;;5.43;73.77
6096;BME280;25081;42.698;23.298;2023-04-04T10:21:06;94252.08;;;5.33;73.00
6096;BME280;25081;42.698;23.298;2023-04-04T10:23:16;94259.84;;;5.44;72.92
6096;BME280;25081;42.698;23.298;2023-04-04T10:25:27;94258.14;;;5.56;72.94
6096;BME280;25081;42.698;23.298;2023-04-04T10:27:37;94263.77;;;5.66;72.78
6096;BME280;25081;42.698;23.298;2023-04-04T10:29:48;94266.73;;;5.83;71.50
6096;BME280;25081;42.698;23.298;2023-04-04T10:32:01;94263.06;;;5.84;72.58
6096;BME280;25081;42.698;23.298;2023-04-04T10:34:14;94264.53;;;5.96;71.63
6096;BME280;25081;42.698;23.298;2023-04-04T10:36:23;94271.07;;;5.93;71.79
6096;BME280;25081;42.698;23.298;2023-04-04T10:38:36;94272.75;;;5.81;72.08
6096;BME280;25081;42.698;23.298;2023-04-04T10:40:43;94282.02;;;5.97;72.29
6096;BME280;25081;42.698;23.298;2023-04-04T10:42:54;94280.95;;;5.89;72.31
6096;BME280;25081;42.698;23.298;2023-04-04T10:45:05;94292.88;;;5.82;71.86
6096;BME280;25081;42.698;23.298;2023-04-04T10:47:17;94288.85;;;5.95;73.07
6096;BME280;25081;42.698;23.298;2023-04-04T10:49:27;94286.05;;;5.84;73.48
6096;BME280;25081;42.698;23.298;2023-04-04T10:51:38;94285.98;;;5.97;73.17
6096;BME280;25081;42.698;23.298;2023-04-04T10:53:49;94290.83;;;5.91;72.68
6096;BME280;25081;42.698;23.298;2023-04-04T10:56:00;94293.18;;;5.45;72.95
6096;BME280;25081;42.698;23.298;2023-04-04T10:58:10;94296.65;;;5.16;73.68
6096;BME280;25081;42.698;23.298;2023-04-04T11:00:21;94301.80;;;5.21;74.64
6096;BME280;25081;42.698;23.298;2023-04-04T11:02:46;94307.48;;;5.31;74.69
6096;BME280;25081;42.698;23.298;2023-04-04T11:04:56;94300.61;;;5.16;74.84
6096;BME280;25081;42.698;23.298;2023-04-04T11:07:15;94306.84;;;5.35;74.87
6096;BME280;25081;42.698;23.298;2023-04-04T11:09:47;94306.16;;;5.31;74.78
6096;BME280;25081;42.698;23.298;2023-04-04T11:12:10;94292.16;;;5.24;74.43
6096;BME280;25081;42.698;23.298;2023-04-04T11:14:29;94300.76;;;4.99;75.12
6096;BME280;25081;42.698;23.298;2023-04-04T11:16:45;94309.40;;;5.04;76.30
6096;BME280;25081;42.698;23.298;2023-04-04T11:18:58;94317.66;;;5.21;75.67
6096;BME280;25081;42.698;23.298;2023-04-04T11:21:09;94325.93;;;5.08;75.99
6096;BME280;25081;42.698;23.298;2023-04-04T11:23:19;94323.22;;;5.28;76.33
6096;BME280;25081;42.698;23.298;2023-04-04T11:25:34;94315.06;;;5.59;76.92
6096;BME280;25081;42.698;23.298;2023-04-04T11:27:45;94320.33;;;5.65;75.81
6096;BME280;25081;42.698;23.298;2023-04-04T11:29:56;94319.67;;;5.54;76.48
6096;BME280;25081;42.698;23.298;2023-04-04T11:32:06;94325.69;;;5.52;76.45
6096;BME280;25081;42.698;23.298;2023-04-04T11:34:29;94329.60;;;5.36;77.82
6096;BME280;25081;42.698;23.298;2023-04-04T11:36:52;94332.00;;;5.22;79.09
6096;BME280;25081;42.698;23.298;2023-04-04T11:39:03;94332.58;;;4.88;78.48
6096;BME280;25081;42.698;23.298;2023-04-04T11:41:14;94334.28;;;4.99;79.92